English Bay, AK

11:34 PM AKDT on August 20, 2014 (GMT -0800)
KAKHOMER5 | Change Station
CLOSE
Current Station
Personal Weather Station
Location: Homer, AK
Elevation: 1152 ft
Nearby Weather Stations
Active Advisory: Areal Flood Advisory Active Notice: Record Report

Elev 1152 ft 59.67 °N, 151.49 °W | Updated 48 seconds ago

Clear
Clear
54.3 °F
Feels Like 54.3 °F
N
3.0
Wind Variable Wind from WSW
Gusts 4.0 mph

Today
High -- | Low -- °F
--% Chance of Precip.
Yesterday
High -- | Low -- °F
Precip. -- in
6:34 AM 9:42 PM
Waning Crescent, 16% visible
Pressure 30.15 in
Visibility 10.0 miles
Clouds Clear
Dew Point 50 °F
Humidity 84%
Rainfall 0.00 in
Snow Depth 1 in
UV 0 out of 12
Pollen Not available.
Air Quality Not available.
Flu Activity Not available.
METAR PAHO 210653Z AUTO 04004KT 10SM CLR 12/09 A3014 RMK AO2 SLP208 T01220089 TSNO

More Conditions Fewer Conditions

Pressure 30.15 in
Visibility 10.0 miles
Clouds Clear
Dew Point 50 °F
Humidity 84%
Rainfall 0.00 in
Snow Depth 1 in
UV 0 out of 12
Pollen Not available.
Air Quality Not available.
Flu Activity Not available.
METAR PAHO 210653Z AUTO 04004KT 10SM CLR 12/09 A3014 RMK AO2 SLP208 T01220089 TSNO

More Conditions Fewer Conditions

10-Day Weather Forecast

Almanac

Astronomy

Aug. 20, 2014 Rise Set
Actual Time 6:34 AM AKDT 9:42 PM AKDT
Civil Twilight 5:45 AM AKDT 10:30 PM AKDT
Nautical Twilight 4:38 AM AKDT 11:36 PM AKDT
Astronomical Twilight 2:41 AM AKDT 1:39 AM AKDT
Moon 1:53 AM AKDT (8/20) 7:02 PM AKDT (8/20)
Length of Visible Light 16h 44m
Length of Day
15h 08m
Tomorrow will be 5m 12s shorter.
Waning Crescent, 16% of the Moon is Illuminated
Aug 21
Waning Crescent
Aug 25
New
Sep 2
First Quarter
Sep 8
Full
Sep 15
Last Quarter

Community

WunderPhotos

Upload Photos

1,745,858 photos uploaded!

Nearby

Snow Depth

Station Depth Elevation
Mcneil Canyon 1 in 1320 ft
Port Graham 0 in 300 ft
MF Bradley River 4 in 2300 ft
Cooper Lake 36 in 1200 ft
Grouse Creek Divide 0 in 700 ft

Earthquake Activity

City Distance Mag. Time & Date
No recent earthquake activity has been reported nearby.
Minimum magnitude displayed is 2.5.

Coastal Water Temperatures

Place Temperature
No Stations Reporting

Nearby Weather Stations